Time;durP1;ratioP1;P1;durP2;ratioP2;P2;SDS_P1;SDS_P2;PMS_P1;PMS_P2;Temp;Humidity;BMP_temperature;BMP_pressure;BME280_temperature;BME280_humidity;BME280_pressure;Samples;Min_cycle;Max_cycle;Signal;HPM_P1;HPM_P2
2022/05/03 00:01:24;;;;;;;;;;;;;;;;;;5004777;28;19923;-60
2022/05/03 00:03:50;;;;;;;;;;;;;;;;;;5007792;28;20080;-60
2022/05/03 00:06:15;;;;;;;;;;;;;;;;;;5011329;28;19913;-62
2022/05/03 00:08:40;;;;;;;;;;;;;;;;;;5005025;28;19917;-60
2022/05/03 00:11:05;;;;;;;;;;;;;;;;;;5004721;28;19931;-60
2022/05/03 00:13:30;;;;;;;;;;;;;;;;;;5012624;28;19928;-60
2022/05/03 00:15:57;;;;;;;;;;;;;;;;;;5004514;28;19921;-60
2022/05/03 00:18:22;;;;;;;;;;;;;;;;;;5013699;28;19918;-60
2022/05/03 00:20:47;;;;;;;;;;;;;;;;;;5015853;28;19928;-61
2022/05/03 00:23:12;;;;;;;;;;;;;;;;;;5008029;28;19924;-60
2022/05/03 00:25:38;;;;;;;;;;;;;;;;;;5016234;28;19913;-59
2022/05/03 00:28:03;;;;;;;;;;;;;;;;;;5008293;28;20507;-60
2022/05/03 00:30:28;;;;;;;;;;;;;;;;;;5014959;28;19960;-61
2022/05/03 00:32:54;;;;;;;;;;;;;;;;;;5009964;28;20031;-61
2022/05/03 00:35:21;;;;;;;;;;;;;;;;;;5015527;28;19925;-59
2022/05/03 00:37:46;;;;;;;;;;;;;;;;;;5014420;28;19921;-60
2022/05/03 00:40:11;;;;;;;;;;;;;;;;;;5017907;28;19951;-59
2022/05/03 00:42:36;;;;;;;;;;;;;;;;;;5015784;28;19917;-59
2022/05/03 00:45:02;;;;;;;;;;;;;;;;;;5009049;28;19921;-60
2022/05/03 00:47:27;;;;;;;;;;;;;;;;;;5008121;28;19924;-60
2022/05/03 00:49:52;;;;;;;;;;;;;;;;;;5014391;28;19924;-59
2022/05/03 00:52:17;;;;;;;;;;;;;;;;;;5009200;28;19924;-59
2022/05/03 00:54:43;;;;;;;;;;;;;;;;;;5013019;28;19921;-60
2022/05/03 00:57:08;;;;;;;;;;;;;;;;;;5007273;28;19952;-60
2022/05/03 00:59:33;;;;;;;;;;;;;;;;;;5009941;28;19951;-60
2022/05/03 01:01:59;;;;;;;;;;;;;;;;;;5013970;28;19921;-62
2022/05/03 01:04:24;;;;;;;;;;;;;;;;;;5016736;28;20604;-58
2022/05/03 01:06:49;;;;;;;;;;;;;;;;;;5013370;28;20000;-60
2022/05/03 01:09:15;;;;;;;;;;;;;;;;;;5017059;28;19917;-62
2022/05/03 01:11:40;;;;;;;;;;;;;;;;;;5010890;28;19949;-60
2022/05/03 01:14:06;;;;;;;;;;;;;;;;;;5014882;28;19921;-59
2022/05/03 01:16:31;;;;;;;;;;;;;;;;;;5007996;28;19918;-62
2022/05/03 01:18:56;;;;;;;;;;;;;;;;;;5012960;28;19925;-60
2022/05/03 01:21:21;;;;;;;;;;;;;;;;;;5008485;28;19921;-59
2022/05/03 01:23:46;;;;;;;;;;;;;;;;;;5009259;28;19921;-60
2022/05/03 01:26:12;;;;;;;;;;;;;;;;;;5015861;28;19917;-60
2022/05/03 01:28:37;;;;;;;;;;;;;;;;;;5009924;28;19967;-61
2022/05/03 01:31:02;;;;;;;;;;;;;;;;;;5013725;28;20057;-60
2022/05/03 01:33:27;;;;;;;;;;;;;;;;;;5009557;28;19947;-61
2022/05/03 01:35:52;;;;;;;;;;;;;;;;;;5010109;28;19921;-60
2022/05/03 01:38:18;;;;;;;;;;;;;;;;;;5016749;28;19924;-60
2022/05/03 01:40:43;;;;;;;;;;;;;;;;;;5009379;28;19962;-61
2022/05/03 01:43:09;;;;;;;;;;;;;;;;;;5015101;28;19917;-60
2022/05/03 01:45:34;;;;;;;;;;;;;;;;;;5006162;28;20019;-60
2022/05/03 01:47:59;;;;;;;;;;;;;;;;;;5013614;28;19921;-60
2022/05/03 01:50:24;;;;;;;;;;;;;;;;;;5017099;28;19971;-59
2022/05/03 01:52:50;;;;;;;;;;;;;;;;;;5010646;28;19967;-60
2022/05/03 01:55:15;;;;;;;;;;;;;;;;;;5012241;28;19921;-61
2022/05/03 01:57:41;;;;;;;;;;;;;;;;;;5007911;28;19956;-60
2022/05/03 02:00:06;;;;;;;;;;;;;;;;;;5010422;28;19924;-60
2022/05/03 02:02:49;;;;;;;;;;;;;;;;;;5013857;28;19922;-60
2022/05/03 02:05:14;;;;;;;;;;;;;;;;;;5007023;28;19917;-60
2022/05/03 02:07:39;;;;;;;;;;;;;;;;;;5008262;28;20329;-61
2022/05/03 02:10:05;;;;;;;;;;;;;;;;;;5014757;28;19917;-61
2022/05/03 02:12:30;;;;;;;;;;;;;;;;;;5013598;28;19917;-60
2022/05/03 02:14:55;;;;;;;;;;;;;;;;;;5013309;28;19925;-59
2022/05/03 02:17:20;;;;;;;;;;;;;;;;;;5004912;28;19995;-60
2022/05/03 02:19:46;;;;;;;;;;;;;;;;;;5006566;28;20457;-60
2022/05/03 02:22:11;;;;;;;;;;;;;;;;;;5013643;28;20358;-60
2022/05/03 02:24:36;;;;;;;;;;;;;;;;;;5009406;28;19925;-60
2022/05/03 02:27:01;;;;;;;;;;;;;;;;;;5015480;28;19929;-60
2022/05/03 02:29:27;;;;;;;;;;;;;;;;;;5008415;28;19925;-61
2022/05/03 02:31:52;;;;;;;;;;;;;;;;;;5007462;28;19917;-60
2022/05/03 02:34:17;;;;;;;;;;;;;;;;;;5013058;28;20092;-61
2022/05/03 02:36:43;;;;;;;;;;;;;;;;;;5008759;28;19921;-62
2022/05/03 02:39:08;;;;;;;;;;;;;;;;;;5013205;28;19957;-60
2022/05/03 02:41:33;;;;;;;;;;;;;;;;;;5007871;28;19917;-60
2022/05/03 02:43:58;;;;;;;;;;;;;;;;;;5007777;28;19971;-60
2022/05/03 02:46:23;;;;;;;;;;;;;;;;;;5014995;28;19942;-60
2022/05/03 02:48:49;;;;;;;;;;;;;;;;;;5011670;28;20162;-61
2022/05/03 02:51:14;;;;;;;;;;;;;;;;;;5009881;28;19925;-60
2022/05/03 02:53:39;;;;;;;;;;;;;;;;;;5006428;28;20387;-59
2022/05/03 02:56:04;;;;;;;;;;;;;;;;;;5007081;28;20549;-60
2022/05/03 02:58:30;;;;;;;;;;;;;;;;;;5012796;28;20652;-60
2022/05/03 03:03:39;;;;;;;;;;;;;;;;;;5010883;28;20425;-60
2022/05/03 03:06:04;;;;;;;;;;;;;;;;;;5009808;28;19913;-61
2022/05/03 03:08:29;;;;;;;;;;;;;;;;;;5008127;28;19971;-59
2022/05/03 03:10:55;;;;;;;;;;;;;;;;;;5010951;28;20354;-59
2022/05/03 03:13:20;;;;;;;;;;;;;;;;;;5006909;28;20364;-59
2022/05/03 03:15:45;;;;;;;;;;;;;;;;;;5013217;28;20247;-59
2022/05/03 03:18:10;;;;;;;;;;;;;;;;;;5008491;28;20373;-59
2022/05/03 03:20:35;;;;;;;;;;;;;;;;;;5006746;28;19924;-59
2022/05/03 03:23:01;;;;;;;;;;;;;;;;;;5011448;28;19913;-61
2022/05/03 03:25:26;;;;;;;;;;;;;;;;;;5005516;28;20110;-60
2022/05/03 03:27:51;;;;;;;;;;;;;;;;;;5013026;28;20028;-59
2022/05/03 03:30:16;;;;;;;;;;;;;;;;;;5005324;28;20036;-60
2022/05/03 03:32:41;;;;;;;;;;;;;;;;;;5008810;28;20336;-59
2022/05/03 03:35:07;;;;;;;;;;;;;;;;;;5013224;28;20016;-60
2022/05/03 03:37:34;;;;;;;;;;;;;;;;;;5006429;28;19924;-60
2022/05/03 03:39:59;;;;;;;;;;;;;;;;;;5012976;28;19921;-60
2022/05/03 03:42:24;;;;;;;;;;;;;;;;;;5005727;28;20008;-60
2022/05/03 03:44:49;;;;;;;;;;;;;;;;;;5006470;28;19932;-59
2022/05/03 03:47:15;;;;;;;;;;;;;;;;;;5015467;28;19917;-59
2022/05/03 03:49:41;;;;;;;;;;;;;;;;;;5012126;28;20441;-59
2022/05/03 03:52:06;;;;;;;;;;;;;;;;;;5009853;28;19994;-60
2022/05/03 03:54:31;;;;;;;;;;;;;;;;;;5006132;28;19940;-60
2022/05/03 03:56:56;;;;;;;;;;;;;;;;;;5010401;28;19925;-60
2022/05/03 03:59:22;;;;;;;;;;;;;;;;;;5015994;28;20340;-59
2022/05/03 04:01:50;;;;;;;;;;;;;;;;;;5010427;28;19924;-61
2022/05/03 04:04:15;;;;;;;;;;;;;;;;;;5015240;28;19917;-60
2022/05/03 04:06:40;;;;;;;;;;;;;;;;;;5014164;28;19923;-59
2022/05/03 04:09:06;;;;;;;;;;;;;;;;;;5009066;28;20022;-60
2022/05/03 04:11:31;;;;;;;;;;;;;;;;;;5017039;28;19925;-59
2022/05/03 04:13:56;;;;;;;;;;;;;;;;;;5010707;28;19932;-60
2022/05/03 04:16:21;;;;;;;;;;;;;;;;;;5015949;28;19967;-59
2022/05/03 04:18:46;;;;;;;;;;;;;;;;;;5009272;28;19917;-60
2022/05/03 04:21:12;;;;;;;;;;;;;;;;;;5013083;28;19913;-58
2022/05/03 04:23:37;;;;;;;;;;;;;;;;;;5016766;28;20289;-59
2022/05/03 04:26:02;;;;;;;;;;;;;;;;;;5014952;28;20470;-59
2022/05/03 04:28:27;;;;;;;;;;;;;;;;;;5013942;28;19917;-60
2022/05/03 04:30:52;;;;;;;;;;;;;;;;;;5009472;28;20015;-59
2022/05/03 04:33:18;;;;;;;;;;;;;;;;;;5011214;28;19960;-59
2022/05/03 04:35:43;;;;;;;;;;;;;;;;;;5016819;28;19917;-59
2022/05/03 04:38:08;;;;;;;;;;;;;;;;;;5012441;28;19928;-60
2022/05/03 04:40:33;;;;;;;;;;;;;;;;;;5017138;28;19991;-60
2022/05/03 04:42:58;;;;;;;;;;;;;;;;;;5008718;28;19917;-62
2022/05/03 04:45:24;;;;;;;;;;;;;;;;;;5017362;28;19921;-61
2022/05/03 04:47:49;;;;;;;;;;;;;;;;;;5014691;28;19925;-61
2022/05/03 04:50:14;;;;;;;;;;;;;;;;;;5009578;28;19922;-60
2022/05/03 04:52:39;;;;;;;;;;;;;;;;;;5014133;28;20444;-59
2022/05/03 04:55:04;;;;;;;;;;;;;;;;;;5009048;28;19918;-61
2022/05/03 04:57:30;;;;;;;;;;;;;;;;;;5008985;28;19921;-59
2022/05/03 04:59:55;;;;;;;;;;;;;;;;;;5021546;28;19917;-59
2022/05/03 05:02:21;;;;;;;;;;;;;;;;;;5012988;28;19921;-62
2022/05/03 05:04:46;;;;;;;;;;;;;;;;;;5015003;28;19917;-59
2022/05/03 05:07:11;;;;;;;;;;;;;;;;;;5004527;28;19924;-60
2022/05/03 05:09:37;;;;;;;;;;;;;;;;;;5015184;28;20399;-59
2022/05/03 05:12:02;;;;;;;;;;;;;;;;;;5013078;28;19921;-59
2022/05/03 05:14:27;;;;;;;;;;;;;;;;;;5010351;28;19922;-59
2022/05/03 05:16:53;;;;;;;;;;;;;;;;;;5013647;28;19971;-60
2022/05/03 05:19:18;;;;;;;;;;;;;;;;;;5012706;28;20314;-60
2022/05/03 05:21:43;;;;;;;;;;;;;;;;;;5009855;28;19917;-60
2022/05/03 05:24:11;;;;;;;;;;;;;;;;;;5018972;28;19968;-59
2022/05/03 05:26:36;;;;;;;;;;;;;;;;;;5012015;28;19913;-59
2022/05/03 05:29:02;;;;;;;;;;;;;;;;;;5017974;28;19923;-59
2022/05/03 05:31:27;;;;;;;;;;;;;;;;;;5011040;28;19920;-60
2022/05/03 05:33:52;;;;;;;;;;;;;;;;;;5008262;28;19929;-59
2022/05/03 05:36:18;;;;;;;;;;;;;;;;;;5012752;28;20503;-60
2022/05/03 05:38:43;;;;;;;;;;;;;;;;;;5006569;28;20658;-60
2022/05/03 05:41:08;;;;;;;;;;;;;;;;;;5013060;28;19996;-60
2022/05/03 05:43:33;;;;;;;;;;;;;;;;;;5007207;28;19960;-60
2022/05/03 05:46:00;;;;;;;;;;;;;;;;;;5017395;28;19978;-59
2022/05/03 05:48:25;;;;;;;;;;;;;;;;;;5014777;28;19917;-59
2022/05/03 05:50:50;;;;;;;;;;;;;;;;;;5013399;28;19924;-59
2022/05/03 05:53:34;;;;;;;;;;;;;;;;;;5011528;28;19928;-59
2022/05/03 05:55:59;;;;;;;;;;;;;;;;;;5012728;28;19921;-59
2022/05/03 05:58:24;;;;;;;;;;;;;;;;;;5013064;28;19925;-59
2022/05/03 06:00:49;;;;;;;;;;;;;;;;;;5010283;28;19918;-60
2022/05/03 06:03:14;;;;;;;;;;;;;;;;;;5011961;28;19952;-59
2022/05/03 06:05:40;;;;;;;;;;;;;;;;;;5012660;28;19922;-60
2022/05/03 06:08:06;;;;;;;;;;;;;;;;;;5011618;28;19917;-59
2022/05/03 06:10:31;;;;;;;;;;;;;;;;;;5014339;28;20004;-60
2022/05/03 06:12:59;;;;;;;;;;;;;;;;;;5013647;28;20451;-61
2022/05/03 06:15:24;;;;;;;;;;;;;;;;;;5019525;28;19921;-60
2022/05/03 06:17:49;;;;;;;;;;;;;;;;;;5014267;28;19917;-59
2022/05/03 06:20:14;;;;;;;;;;;;;;;;;;5013489;28;20286;-59
2022/05/03 06:22:40;;;;;;;;;;;;;;;;;;5011717;28;20357;-60
2022/05/03 06:25:05;;;;;;;;;;;;;;;;;;5012368;28;19925;-59
2022/05/03 06:27:31;;;;;;;;;;;;;;;;;;4995061;28;19921;-62
2022/05/03 06:29:56;;;;;;;;;;;;;;;;;;5008396;28;19921;-59
2022/05/03 06:32:21;;;;;;;;;;;;;;;;;;5011741;28;19918;-60
2022/05/03 06:34:46;;;;;;;;;;;;;;;;;;5010231;28;19925;-61
2022/05/03 06:37:12;;;;;;;;;;;;;;;;;;5018027;28;19913;-59
2022/05/03 06:39:37;;;;;;;;;;;;;;;;;;5010285;28;19917;-59
2022/05/03 06:42:03;;;;;;;;;;;;;;;;;;4994539;28;19975;-60
2022/05/03 06:44:28;;;;;;;;;;;;;;;;;;5000224;28;19928;-59
2022/05/03 06:46:53;;;;;;;;;;;;;;;;;;5003385;28;19920;-60
2022/05/03 06:49:20;;;;;;;;;;;;;;;;;;4998486;28;19921;-61
2022/05/03 06:51:45;;;;;;;;;;;;;;;;;;5006981;28;20451;-60
2022/05/03 06:54:10;;;;;;;;;;;;;;;;;;5009565;28;19921;-60
2022/05/03 06:56:36;;;;;;;;;;;;;;;;;;5009896;28;19921;-60
2022/05/03 06:59:01;;;;;;;;;;;;;;;;;;5009872;28;20024;-61
2022/05/03 07:01:26;;;;;;;;;;;;;;;;;;5009497;28;19917;-60
2022/05/03 07:03:51;;;;;;;;;;;;;;;;;;5007954;28;19918;-60
2022/05/03 07:06:21;;;;;;;;;;;;;;;;;;5008299;28;19914;-62
2022/05/03 07:08:46;;;;;;;;;;;;;;;;;;5016008;28;20015;-61
2022/05/03 07:11:11;;;;;;;;;;;;;;;;;;5008463;28;20003;-62
2022/05/03 07:13:36;;;;;;;;;;;;;;;;;;5010041;28;19922;-60
2022/05/03 07:16:01;;;;;;;;;;;;;;;;;;5012000;28;19929;-61
2022/05/03 07:23:55;;;;;;;;;;;;;;;;;;5011341;28;19917;-61
2022/05/03 07:26:20;;;;;;;;;;;;;;;;;;5010216;28;20278;-61
2022/05/03 07:28:48;;;;;;;;;;;;;;;;;;5008884;28;20016;-60
2022/05/03 07:31:14;;;;;;;;;;;;;;;;;;5009148;28;19918;-61
2022/05/03 07:33:39;;;;;;;;;;;;;;;;;;5012999;28;19925;-60
2022/05/03 07:36:04;;;;;;;;;;;;;;;;;;5012852;28;19992;-61
2022/05/03 07:38:30;;;;;;;;;;;;;;;;;;5013662;28;19988;-61
2022/05/03 07:40:56;;;;;;;;;;;;;;;;;;5012517;28;20015;-61
2022/05/03 07:43:21;;;;;;;;;;;;;;;;;;5013099;28;20656;-61
2022/05/03 07:45:46;;;;;;;;;;;;;;;;;;4955168;28;1817416;-63
2022/05/03 07:48:11;;;;;;;;;;;;;;;;;;5014195;28;19917;-62
2022/05/03 07:50:37;;;;;;;;;;;;;;;;;;5013963;28;19953;-62
2022/05/03 07:53:02;;;;;;;;;;;;;;;;;;5011896;28;19928;-61
2022/05/03 07:55:27;;;;;;;;;;;;;;;;;;5011924;28;19929;-61
2022/05/03 07:57:52;;;;;;;;;;;;;;;;;;5013752;28;19913;-62
2022/05/03 08:00:17;;;;;;;;;;;;;;;;;;5011970;28;19917;-61
2022/05/03 08:02:43;;;;;;;;;;;;;;;;;;5019527;28;19968;-62
2022/05/03 08:05:10;;;;;;;;;;;;;;;;;;5012427;28;20076;-60
2022/05/03 08:07:35;;;;;;;;;;;;;;;;;;5014317;28;19952;-61
2022/05/03 08:10:00;;;;;;;;;;;;;;;;;;5011628;28;19964;-61
2022/05/03 08:12:26;;;;;;;;;;;;;;;;;;5021294;28;20643;-60
2022/05/03 08:14:52;;;;;;;;;;;;;;;;;;5009807;28;20445;-60
2022/05/03 08:17:17;;;;;;;;;;;;;;;;;;5013300;28;20420;-62
2022/05/03 08:19:42;;;;;;;;;;;;;;;;;;5013166;28;19917;-62
2022/05/03 08:22:07;;;;;;;;;;;;;;;;;;5012969;28;19924;-61
2022/05/03 08:24:32;;;;;;;;;;;;;;;;;;5013213;28;19917;-61
2022/05/03 08:26:59;;;;;;;;;;;;;;;;;;5020213;28;19944;-61
2022/05/03 08:29:27;;;;;;;;;;;;;;;;;;5010629;28;20442;-62
2022/05/03 08:31:52;;;;;;;;;;;;;;;;;;5013335;28;19917;-61
2022/05/03 08:34:17;;;;;;;;;;;;;;;;;;5011523;28;19917;-61
2022/05/03 08:42:01;;;;;;;;;;;;;;;;;;5013534;28;19917;-62
2022/05/03 08:42:13;;;;;;;;;;;;;;;;;;5011949;28;19967;-62
2022/05/03 08:44:39;;;;;;;;;;;;;;;;;;5014283;28;19960;-62
2022/05/03 08:47:04;;;;;;;;;;;;;;;;;;5012622;28;19949;-61
2022/05/03 08:49:29;;;;;;;;;;;;;;;;;;5010135;28;20031;-63
2022/05/03 08:51:54;;;;;;;;;;;;;;;;;;5013682;28;19990;-63
2022/05/03 08:54:20;;;;;;;;;;;;;;;;;;5011827;28;19917;-61
2022/05/03 08:56:46;;;;;;;;;;;;;;;;;;5012482;28;20385;-63
2022/05/03 08:59:11;;;;;;;;;;;;;;;;;;5010448;28;19913;-63
2022/05/03 09:01:36;;;;;;;;;;;;;;;;;;5014583;28;19924;-62
2022/05/03 09:04:01;;;;;;;;;;;;;;;;;;5011809;28;19968;-62
2022/05/03 09:06:26;;;;;;;;;;;;;;;;;;5014207;28;19917;-63
2022/05/03 09:08:52;;;;;;;;;;;;;;;;;;5013123;28;19986;-62
2022/05/03 09:11:17;;;;;;;;;;;;;;;;;;5013314;28;19929;-63
2022/05/03 09:13:43;;;;;;;;;;;;;;;;;;5012656;28;19921;-63
2022/05/03 09:16:08;;;;;;;;;;;;;;;;;;5003007;28;19921;-62
2022/05/03 09:18:33;;;;;;;;;;;;;;;;;;5013920;28;19979;-61
2022/05/03 09:23:49;;;;;;;;;;;;;;;;;;5012556;28;19924;-61
2022/05/03 09:26:14;;;;;;;;;;;;;;;;;;5010366;28;20653;-61
2022/05/03 09:28:39;;;;;;;;;;;;;;;;;;5012366;28;20386;-62
2022/05/03 09:31:04;;;;;;;;;;;;;;;;;;5012354;28;19920;-62
2022/05/03 09:33:30;;;;;;;;;;;;;;;;;;5013108;28;19948;-61
2022/05/03 09:35:55;;;;;;;;;;;;;;;;;;5010387;28;19921;-61
2022/05/03 09:38:20;;;;;;;;;;;;;;;;;;5013256;28;19928;-61
2022/05/03 09:40:45;;;;;;;;;;;;;;;;;;4994567;28;19935;-62
2022/05/03 09:43:11;;;;;;;;;;;;;;;;;;5001114;28;19929;-63
2022/05/03 09:45:36;;;;;;;;;;;;;;;;;;5002491;28;19921;-61
2022/05/03 09:48:02;;;;;;;;;;;;;;;;;;5000529;28;21152;-61
2022/05/03 09:50:28;;;;;;;;;;;;;;;;;;5006993;28;19970;-62
2022/05/03 09:52:53;;;;;;;;;;;;;;;;;;5007151;28;19917;-63
2022/05/03 09:55:18;;;;;;;;;;;;;;;;;;5009454;28;19987;-63
2022/05/03 09:57:44;;;;;;;;;;;;;;;;;;5011200;28;19940;-62
2022/05/03 10:00:09;;;;;;;;;;;;;;;;;;5011595;28;20734;-61
2022/05/03 10:02:40;;;;;;;;;;;;;;;;;;5015286;28;19948;-62
2022/05/03 10:05:06;;;;;;;;;;;;;;;;;;5001455;28;20302;-62
2022/05/03 10:07:32;;;;;;;;;;;;;;;;;;5007318;28;19977;-62
2022/05/03 10:09:57;;;;;;;;;;;;;;;;;;5014765;28;20290;-62
2022/05/03 10:12:22;;;;;;;;;;;;;;;;;;5011388;28;20393;-62
2022/05/03 10:14:47;;;;;;;;;;;;;;;;;;5011960;28;19921;-62
2022/05/03 10:23:00;;;;;;;;;;;;;;;;;;5001416;28;20007;-62
2022/05/03 10:25:25;;;;;;;;;;;;;;;;;;5000609;28;20362;-62
2022/05/03 10:27:51;;;;;;;;;;;;;;;;;;5006434;28;20364;-61
2022/05/03 10:30:16;;;;;;;;;;;;;;;;;;5020735;28;20003;-63
2022/05/03 10:32:41;;;;;;;;;;;;;;;;;;5012737;28;19922;-62
2022/05/03 10:35:06;;;;;;;;;;;;;;;;;;5015931;28;19918;-62
2022/05/03 10:37:36;;;;;;;;;;;;;;;;;;5012628;28;19917;-62
2022/05/03 10:40:01;;;;;;;;;;;;;;;;;;5013689;28;20122;-62
2022/05/03 10:42:26;;;;;;;;;;;;;;;;;;5011012;28;19929;-62
2022/05/03 10:44:51;;;;;;;;;;;;;;;;;;5011346;28;19921;-62
2022/05/03 10:47:16;;;;;;;;;;;;;;;;;;5012149;28;20390;-62
2022/05/03 10:49:42;;;;;;;;;;;;;;;;;;5012277;28;19914;-62
2022/05/03 10:52:07;;;;;;;;;;;;;;;;;;5013870;28;19960;-62
2022/05/03 10:54:32;;;;;;;;;;;;;;;;;;5013898;28;19924;-62
2022/05/03 10:56:57;;;;;;;;;;;;;;;;;;5013043;28;19999;-62
2022/05/03 10:59:22;;;;;;;;;;;;;;;;;;5012533;28;19920;-63
2022/05/03 11:01:48;;;;;;;;;;;;;;;;;;5011711;28;20314;-62
2022/05/03 11:04:13;;;;;;;;;;;;;;;;;;5011484;28;19964;-62
2022/05/03 11:06:38;;;;;;;;;;;;;;;;;;4996569;28;19930;-62
2022/05/03 11:11:29;;;;;;;;;;;;;;;;;;4983295;28;19924;-63
2022/05/03 11:13:54;;;;;;;;;;;;;;;;;;5001332;28;19940;-62
2022/05/03 11:16:19;;;;;;;;;;;;;;;;;;4996949;28;19968;-63
2022/05/03 11:18:44;;;;;;;;;;;;;;;;;;4998300;28;19921;-63
2022/05/03 11:21:10;;;;;;;;;;;;;;;;;;4998415;28;19953;-62
2022/05/03 11:23:35;;;;;;;;;;;;;;;;;;4999342;28;19917;-61
2022/05/03 11:26:00;;;;;;;;;;;;;;;;;;5003036;28;20450;-63
2022/05/03 11:28:25;;;;;;;;;;;;;;;;;;5017371;28;19917;-61
2022/05/03 11:30:50;;;;;;;;;;;;;;;;;;5010459;28;19988;-62
2022/05/03 11:33:17;;;;;;;;;;;;;;;;;;5000581;28;19928;-63
2022/05/03 11:35:42;;;;;;;;;;;;;;;;;;5000717;28;23180;-62
2022/05/03 11:38:07;;;;;;;;;;;;;;;;;;5011046;28;20489;-63
2022/05/03 11:40:33;;;;;;;;;;;;;;;;;;5000596;28;19925;-62
2022/05/03 11:42:59;;;;;;;;;;;;;;;;;;5000645;28;19940;-64
2022/05/03 11:45:24;;;;;;;;;;;;;;;;;;5011158;28;20473;-62
2022/05/03 11:47:49;;;;;;;;;;;;;;;;;;5008976;28;20370;-62
2022/05/03 11:55:58;;;;;;;;;;;;;;;;;;5012193;28;20027;-62
2022/05/03 11:55:59;;;;;;;;;;;;;;;;;;5010051;28;20426;-62
2022/05/03 11:58:24;;;;;;;;;;;;;;;;;;5008104;28;19943;-60
2022/05/03 12:00:49;;;;;;;;;;;;;;;;;;5011619;28;20297;-61
2022/05/03 12:03:15;;;;;;;;;;;;;;;;;;5007352;28;20293;-62
2022/05/03 12:05:40;;;;;;;;;;;;;;;;;;5010056;28;19939;-64
2022/05/03 12:08:06;;;;;;;;;;;;;;;;;;5009632;28;19924;-63
2022/05/03 12:10:31;;;;;;;;;;;;;;;;;;5008372;28;19921;-63
2022/05/03 12:12:56;;;;;;;;;;;;;;;;;;5008576;28;19984;-61
2022/05/03 12:15:21;;;;;;;;;;;;;;;;;;5008815;28;19926;-61
2022/05/03 12:17:47;;;;;;;;;;;;;;;;;;5012854;28;20004;-61
2022/05/03 12:20:12;;;;;;;;;;;;;;;;;;5014436;28;19943;-61
2022/05/03 12:22:37;;;;;;;;;;;;;;;;;;5014020;28;19917;-62
2022/05/03 12:25:04;;;;;;;;;;;;;;;;;;5012612;28;20389;-63
2022/05/03 12:27:29;;;;;;;;;;;;;;;;;;5013047;28;20384;-62
2022/05/03 12:29:54;;;;;;;;;;;;;;;;;;5012918;28;19932;-61
2022/05/03 12:32:19;;;;;;;;;;;;;;;;;;5011739;28;20430;-62
2022/05/03 12:34:45;;;;;;;;;;;;;;;;;;5012227;28;19975;-62
2022/05/03 12:37:10;;;;;;;;;;;;;;;;;;5013595;28;19955;-62
2022/05/03 12:39:35;;;;;;;;;;;;;;;;;;5013006;28;19926;-62
2022/05/03 12:42:01;;;;;;;;;;;;;;;;;;5013298;28;19917;-61
2022/05/03 12:44:26;;;;;;;;;;;;;;;;;;5013761;28;20405;-61
2022/05/03 12:46:51;;;;;;;;;;;;;;;;;;5012069;28;19964;-63
2022/05/03 12:49:16;;;;;;;;;;;;;;;;;;5012856;28;19956;-61
2022/05/03 12:51:42;;;;;;;;;;;;;;;;;;5012972;28;19916;-61
2022/05/03 12:54:07;;;;;;;;;;;;;;;;;;5012600;28;19968;-61
2022/05/03 12:59:17;;;;;;;;;;;;;;;;;;5005569;28;20050;-61
2022/05/03 13:01:42;;;;;;;;;;;;;;;;;;5013700;28;20000;-62
2022/05/03 13:04:08;;;;;;;;;;;;;;;;;;5011949;28;19917;-61
2022/05/03 13:06:34;;;;;;;;;;;;;;;;;;5010434;28;19917;-62
2022/05/03 13:08:59;;;;;;;;;;;;;;;;;;5013427;28;19928;-61
2022/05/03 13:11:24;;;;;;;;;;;;;;;;;;5013256;28;20467;-62
2022/05/03 13:13:50;;;;;;;;;;;;;;;;;;5017145;28;20008;-62
2022/05/03 13:16:15;;;;;;;;;;;;;;;;;;5022660;28;19995;-61
2022/05/03 13:18:41;;;;;;;;;;;;;;;;;;5014776;28;19917;-62
2022/05/03 13:21:06;;;;;;;;;;;;;;;;;;5014137;28;20008;-63
2022/05/03 13:23:31;;;;;;;;;;;;;;;;;;5015059;28;19971;-62
2022/05/03 13:25:56;;;;;;;;;;;;;;;;;;5015221;28;20357;-62
2022/05/03 13:28:21;;;;;;;;;;;;;;;;;;5012776;28;19972;-62
2022/05/03 13:30:47;;;;;;;;;;;;;;;;;;5013818;28;19968;-62
2022/05/03 13:33:12;;;;;;;;;;;;;;;;;;5021827;28;19921;-62
2022/05/03 13:41:05;;;;;;;;;;;;;;;;;;5014129;28;19917;-62
2022/05/03 13:43:30;;;;;;;;;;;;;;;;;;5014505;28;19991;-64
2022/05/03 13:45:56;;;;;;;;;;;;;;;;;;5014705;28;20371;-62
2022/05/03 13:48:21;;;;;;;;;;;;;;;;;;5020869;28;19917;-63
2022/05/03 13:50:46;;;;;;;;;;;;;;;;;;5012045;28;19924;-62
2022/05/03 13:53:11;;;;;;;;;;;;;;;;;;5027868;28;20378;-62
2022/05/03 13:55:39;;;;;;;;;;;;;;;;;;5009506;28;19917;-63
2022/05/03 13:58:05;;;;;;;;;;;;;;;;;;5012693;28;19922;-63
2022/05/03 14:00:31;;;;;;;;;;;;;;;;;;5012222;28;19979;-62
2022/05/03 14:02:57;;;;;;;;;;;;;;;;;;5011991;28;20692;-63
2022/05/03 14:05:22;;;;;;;;;;;;;;;;;;5012274;28;20048;-64
2022/05/03 14:07:48;;;;;;;;;;;;;;;;;;5013920;28;19921;-64
2022/05/03 14:10:13;;;;;;;;;;;;;;;;;;5012714;28;20370;-63
2022/05/03 14:12:38;;;;;;;;;;;;;;;;;;5011821;28;20400;-63
2022/05/03 14:15:03;;;;;;;;;;;;;;;;;;5011880;28;19921;-63
2022/05/03 14:17:29;;;;;;;;;;;;;;;;;;5011106;28;19921;-63
2022/05/03 14:19:54;;;;;;;;;;;;;;;;;;5014057;28;19913;-61
2022/05/03 14:22:19;;;;;;;;;;;;;;;;;;5009374;28;20390;-63
2022/05/03 14:24:44;;;;;;;;;;;;;;;;;;5012979;28;20803;-62
2022/05/03 14:27:10;;;;;;;;;;;;;;;;;;5013208;28;19921;-62
2022/05/03 14:29:35;;;;;;;;;;;;;;;;;;5011942;28;19971;-62
2022/05/03 14:32:00;;;;;;;;;;;;;;;;;;5011535;28;19928;-64
2022/05/03 14:34:26;;;;;;;;;;;;;;;;;;5012826;28;19921;-65
2022/05/03 14:36:52;;;;;;;;;;;;;;;;;;5012278;28;19929;-64
2022/05/03 14:39:17;;;;;;;;;;;;;;;;;;5011948;28;19913;-64
2022/05/03 14:41:42;;;;;;;;;;;;;;;;;;5010592;28;19917;-62
2022/05/03 14:44:07;;;;;;;;;;;;;;;;;;5012546;28;19925;-64
2022/05/03 14:46:33;;;;;;;;;;;;;;;;;;5012389;28;19936;-64
2022/05/03 14:48:58;;;;;;;;;;;;;;;;;;5012688;28;19979;-65
2022/05/03 14:51:23;;;;;;;;;;;;;;;;;;5021293;28;19917;-64
2022/05/03 14:53:49;;;;;;;;;;;;;;;;;;5012709;28;20273;-65
2022/05/03 15:04:25;;;;;;;;;;;;;;;;;;5012083;28;19972;-64
2022/05/03 15:06:52;;;;;;;;;;;;;;;;;;5019787;28;19917;-64
2022/05/03 15:09:18;;;;;;;;;;;;;;;;;;5012196;28;19945;-64
2022/05/03 15:11:43;;;;;;;;;;;;;;;;;;5012428;28;19952;-63
2022/05/03 15:14:08;;;;;;;;;;;;;;;;;;5011675;28;19921;-64
2022/05/03 15:16:33;;;;;;;;;;;;;;;;;;5012710;28;19922;-63
2022/05/03 15:18:58;;;;;;;;;;;;;;;;;;5010664;28;20012;-64
2022/05/03 15:21:24;;;;;;;;;;;;;;;;;;5013244;28;19925;-64
2022/05/03 15:26:33;;;;;;;;;;;;;;;;;;5011724;28;19928;-64
2022/05/03 15:28:58;;;;;;;;;;;;;;;;;;5012702;28;19918;-63
2022/05/03 15:31:24;;;;;;;;;;;;;;;;;;5003459;28;20468;-63
2022/05/03 15:33:49;;;;;;;;;;;;;;;;;;5011085;28;19983;-65
2022/05/03 15:36:14;;;;;;;;;;;;;;;;;;5012494;28;19921;-63
2022/05/03 15:38:39;;;;;;;;;;;;;;;;;;5011407;28;19921;-63
2022/05/03 15:41:05;;;;;;;;;;;;;;;;;;5013804;28;19944;-63
2022/05/03 15:43:33;;;;;;;;;;;;;;;;;;5012658;28;19917;-63
2022/05/03 15:46:00;;;;;;;;;;;;;;;;;;5004430;28;19936;-65
2022/05/03 15:48:25;;;;;;;;;;;;;;;;;;4993096;28;20043;-64
2022/05/03 15:50:51;;;;;;;;;;;;;;;;;;5008870;28;20450;-64
2022/05/03 15:53:16;;;;;;;;;;;;;;;;;;5013830;28;19921;-63
2022/05/03 15:55:41;;;;;;;;;;;;;;;;;;5014489;28;19945;-63
2022/05/03 15:58:07;;;;;;;;;;;;;;;;;;5012978;28;19924;-63
2022/05/03 16:00:32;;;;;;;;;;;;;;;;;;5014867;28;19918;-63
2022/05/03 16:02:57;;;;;;;;;;;;;;;;;;5012247;28;19924;-63
2022/05/03 16:05:22;;;;;;;;;;;;;;;;;;5015148;28;20009;-63
2022/05/03 16:07:48;;;;;;;;;;;;;;;;;;5012889;28;19917;-64
2022/05/03 16:10:13;;;;;;;;;;;;;;;;;;5012220;28;20389;-64
2022/05/03 16:12:38;;;;;;;;;;;;;;;;;;5014550;28;20007;-63
2022/05/03 16:15:03;;;;;;;;;;;;;;;;;;5013567;28;20004;-63
2022/05/03 16:17:29;;;;;;;;;;;;;;;;;;5014653;28;19981;-63
2022/05/03 16:19:55;;;;;;;;;;;;;;;;;;5014269;28;19971;-62
2022/05/03 16:22:20;;;;;;;;;;;;;;;;;;5011853;28;19922;-63
2022/05/03 16:24:47;;;;;;;;;;;;;;;;;;5009571;28;20361;-63
2022/05/03 16:27:12;;;;;;;;;;;;;;;;;;5012549;28;20292;-63
2022/05/03 16:29:37;;;;;;;;;;;;;;;;;;5018974;28;19913;-62
2022/05/03 16:32:04;;;;;;;;;;;;;;;;;;5010934;28;19928;-63
2022/05/03 16:34:29;;;;;;;;;;;;;;;;;;5011314;28;19928;-63
2022/05/03 16:42:23;;;;;;;;;;;;;;;;;;5011649;28;20023;-64
2022/05/03 16:44:48;;;;;;;;;;;;;;;;;;5012286;28;20642;-63
2022/05/03 16:47:13;;;;;;;;;;;;;;;;;;5010497;28;20371;-63
2022/05/03 16:49:39;;;;;;;;;;;;;;;;;;5010746;28;19924;-63
2022/05/03 16:52:04;;;;;;;;;;;;;;;;;;5008410;28;19921;-63
2022/05/03 16:54:29;;;;;;;;;;;;;;;;;;5004197;28;19925;-64
2022/05/03 16:56:54;;;;;;;;;;;;;;;;;;5009663;28;19920;-63
2022/05/03 16:59:20;;;;;;;;;;;;;;;;;;5007507;28;19917;-62
2022/05/03 17:01:45;;;;;;;;;;;;;;;;;;5003875;28;19917;-65
2022/05/03 17:04:10;;;;;;;;;;;;;;;;;;5011866;28;19920;-62
2022/05/03 17:06:36;;;;;;;;;;;;;;;;;;5010632;28;19924;-63
2022/05/03 17:09:01;;;;;;;;;;;;;;;;;;5009906;28;20332;-63
2022/05/03 17:11:26;;;;;;;;;;;;;;;;;;5006682;28;19924;-63
2022/05/03 17:13:51;;;;;;;;;;;;;;;;;;5007569;28;20860;-63
2022/05/03 17:16:17;;;;;;;;;;;;;;;;;;5013794;28;20040;-63
2022/05/03 17:18:42;;;;;;;;;;;;;;;;;;5008720;28;19922;-63
2022/05/03 17:21:07;;;;;;;;;;;;;;;;;;5015658;28;19925;-62
2022/05/03 17:23:32;;;;;;;;;;;;;;;;;;5010332;28;19921;-63